Time;durP1;ratioP1;P1;durP2;ratioP2;P2;SDS_P1;SDS_P2;PMS_P1;PMS_P2;Temp;Humidity;BMP_temperature;BMP_pressure;BME280_temperature;BME280_humidity;BME280_pressure;Samples;Min_cycle;Max_cycle;Signal;HPM_P1;HPM_P2
2023/09/11 00:01:36;;;;;;;35.28;30.75;;;19.50;99.90;;;;;;6241999;22;20012;-81
2023/09/11 00:04:07;;;;;;;33.47;30.05;;;19.50;99.90;;;;;;6242325;22;20012;-81
2023/09/11 00:06:33;;;;;;;31.88;28.20;;;19.50;99.90;;;;;;6242947;22;20020;-81
2023/09/11 00:09:07;;;;;;;36.53;32.33;;;19.50;99.90;;;;;;6241832;23;20022;-81
2023/09/11 00:11:33;;;;;;;31.63;28.08;;;19.50;99.90;;;;;;6215287;23;20016;-81
2023/09/11 00:14:02;;;;;;;35.55;31.85;;;19.50;99.90;;;;;;6242338;23;20087;-81
2023/09/11 00:16:31;;;;;;;34.00;29.98;;;19.40;99.90;;;;;;6242065;22;20050;-81
2023/09/11 00:18:57;;;;;;;35.90;30.08;;;19.40;99.90;;;;;;6242603;23;20308;-81
2023/09/11 00:21:23;;;;;;;35.75;28.13;;;19.40;99.90;;;;;;6240390;23;20019;-81
2023/09/11 00:23:49;;;;;;;32.78;29.27;;;19.40;99.90;;;;;;6240437;23;20016;-81
2023/09/11 00:26:15;;;;;;;31.38;27.73;;;19.40;99.90;;;;;;6240350;23;20004;-81
2023/09/11 00:28:41;;;;;;;32.25;28.65;;;19.40;99.90;;;;;;6242025;22;20026;-81
2023/09/11 00:31:07;;;;;;;34.28;28.67;;;19.40;99.90;;;;;;6214284;23;20344;-81
2023/09/11 00:33:32;;;;;;;33.83;29.40;;;19.40;99.90;;;;;;6240357;23;20126;-81
2023/09/11 00:35:58;;;;;;;34.47;30.33;;;19.40;99.90;;;;;;6241681;23;20015;-80
2023/09/11 00:38:24;;;;;;;36.78;27.52;;;19.40;99.90;;;;;;6240153;23;20317;-81
2023/09/11 00:40:50;;;;;;;29.92;26.15;;;19.30;99.90;;;;;;6240088;23;20090;-81
2023/09/11 00:43:15;;;;;;;33.38;30.08;;;19.30;99.90;;;;;;6240169;23;20062;-81
2023/09/11 00:45:42;;;;;;;29.20;26.33;;;19.30;99.90;;;;;;6240947;23;20012;-82
2023/09/11 00:48:09;;;;;;;33.92;30.15;;;19.30;99.90;;;;;;6240865;22;20027;-81
2023/09/11 00:50:35;;;;;;;31.92;28.70;;;19.20;99.90;;;;;;6239406;23;20019;-81
2023/09/11 00:53:02;;;;;;;40.58;27.35;;;19.10;99.90;;;;;;6240996;23;20375;-81
2023/09/11 00:55:28;;;;;;;31.75;27.08;;;19.30;99.90;;;;;;6239232;23;20545;-81
2023/09/11 00:57:56;;;;;;;34.10;25.95;;;19.30;99.90;;;;;;6264863;22;20138;-81
2023/09/11 01:00:22;;;;;;;32.42;29.08;;;19.30;99.90;;;;;;6264225;22;20016;-80
2023/09/11 01:02:48;;;;;;;32.10;26.23;;;19.30;99.90;;;;;;6214419;23;20436;-81
2023/09/11 01:05:14;;;;;;;29.52;26.38;;;19.30;99.90;;;;;;6241424;23;20023;-81
2023/09/11 01:07:39;;;;;;;29.52;23.30;;;19.30;99.90;;;;;;6241865;22;20020;-81
2023/09/11 01:10:06;;;;;;;33.47;28.25;;;19.20;99.90;;;;;;6239830;23;20439;-81
2023/09/11 01:12:39;;;;;;;32.25;25.00;;;19.20;99.90;;;;;;6241754;22;20015;-81
2023/09/11 01:15:12;;;;;;;28.77;25.73;;;19.20;99.90;;;;;;6239279;23;20016;-81
2023/09/11 01:17:59;;;;;;;35.97;25.08;;;19.20;99.90;;;;;;6214500;23;20087;-81
2023/09/11 01:20:44;;;;;;;36.50;25.77;;;19.20;99.90;;;;;;6240010;23;20471;-81
2023/09/11 01:23:35;;;;;;;28.67;25.50;;;19.10;99.90;;;;;;6240162;23;20023;-81
2023/09/11 01:26:48;;;;;;;32.72;24.77;;;19.10;99.90;;;;;;6241299;23;20095;-81
2023/09/11 01:29:40;;;;;;;31.67;26.67;;;19.10;99.90;;;;;;6239350;23;20008;-80
2023/09/11 01:32:10;;;;;;;28.05;24.42;;;19.10;99.90;;;;;;6213134;23;20016;-81
2023/09/11 01:34:36;;;;;;;31.05;25.17;;;19.00;99.90;;;;;;6265654;22;20012;-81
2023/09/11 01:37:05;;;;;;;28.85;23.08;;;19.00;99.90;;;;;;6241560;23;20018;-82
2023/09/11 01:39:31;;;;;;;31.17;27.73;;;19.00;99.90;;;;;;6240246;23;20502;-81
2023/09/11 01:42:03;;;;;;;33.85;25.85;;;19.00;99.90;;;;;;6239893;23;20016;-81
2023/09/11 01:44:44;;;;;;;30.83;26.17;;;19.00;99.90;;;;;;6239175;23;20087;-80
2023/09/11 01:47:23;;;;;;;32.75;28.92;;;18.90;99.90;;;;;;6241399;22;20503;-80
2023/09/11 01:49:50;;;;;;;27.08;23.40;;;18.90;99.90;;;;;;6241840;23;20009;-81
2023/09/11 01:52:16;;;;;;;38.75;26.70;;;18.90;99.90;;;;;;6265108;22;20083;-81
2023/09/11 01:54:43;;;;;;;28.77;24.58;;;18.90;99.90;;;;;;6241344;22;20019;-81
2023/09/11 01:57:09;;;;;;;32.45;28.00;;;18.80;99.90;;;;;;6241183;22;20034;-81
2023/09/11 01:59:35;;;;;;;34.67;28.35;;;18.80;99.90;;;;;;6241264;22;20217;-81
2023/09/11 02:02:01;;;;;;;28.95;25.30;;;18.80;99.90;;;;;;6239571;23;20345;-81
2023/09/11 02:04:27;;;;;;;32.03;28.73;;;18.80;99.90;;;;;;6241050;22;20012;-81
2023/09/11 02:06:52;;;;;;;35.03;26.27;;;18.60;99.90;;;;;;6241437;22;20366;-81
2023/09/11 02:09:18;;;;;;;28.75;24.70;;;18.70;99.90;;;;;;6239517;23;20048;-81
2023/09/11 02:11:44;;;;;;;33.38;29.90;;;18.70;99.90;;;;;;6241238;23;20384;-81
2023/09/11 02:14:10;;;;;;;29.35;26.20;;;18.70;99.90;;;;;;6264429;22;20090;-81
2023/09/11 02:16:36;;;;;;;32.65;29.35;;;18.60;99.90;;;;;;6214089;23;20019;-81
2023/09/11 02:19:05;;;;;;;29.88;26.50;;;18.70;99.90;;;;;;6239490;23;20435;-80
2023/09/11 02:21:31;;;;;;;32.05;26.63;;;18.40;99.90;;;;;;6241204;22;20027;-81
2023/09/11 02:23:56;;;;;;;33.00;29.77;;;18.60;99.90;;;;;;6239255;23;20339;-81
2023/09/11 02:26:22;;;;;;;37.60;27.00;;;18.60;99.90;;;;;;6238668;23;20067;-81
2023/09/11 02:28:48;;;;;;;32.10;28.65;;;18.50;99.90;;;;;;6264583;22;20008;-81
2023/09/11 02:31:14;;;;;;;32.97;24.38;;;18.50;99.90;;;;;;6214365;23;20040;-81
2023/09/11 02:33:39;;;;;;;32.90;25.77;;;18.50;99.90;;;;;;6240685;22;20443;-81
2023/09/11 02:36:05;;;;;;;27.38;24.30;;;18.50;99.90;;;;;;6239157;23;20061;-81
2023/09/11 02:38:31;;;;;;;31.88;28.52;;;18.50;99.90;;;;;;6264798;22;20034;-81
2023/09/11 02:41:00;;;;;;;37.28;29.08;;;18.40;99.90;;;;;;6236716;23;20371;-81
2023/09/11 02:43:25;;;;;;;27.40;24.58;;;18.40;99.90;;;;;;6264915;22;20023;-80
2023/09/11 02:45:51;;;;;;;34.83;26.58;;;18.40;99.90;;;;;;6240990;22;20012;-81
2023/09/11 02:48:17;;;;;;;26.17;23.45;;;18.40;99.90;;;;;;6241155;23;20206;-81
2023/09/11 02:50:42;;;;;;;36.10;31.85;;;18.40;99.90;;;;;;6240789;23;20054;-81
2023/09/11 02:53:09;;;;;;;35.08;25.13;;;18.30;99.90;;;;;;6241106;22;20012;-81
2023/09/11 02:55:39;;;;;;;32.72;29.13;;;18.30;99.90;;;;;;6213454;23;20087;-80
2023/09/11 02:58:07;;;;;;;28.80;23.92;;;18.30;99.90;;;;;;6239623;23;20083;-81
2023/09/11 03:00:37;;;;;;;37.47;33.95;;;18.30;99.90;;;;;;6238959;23;20024;-81
2023/09/11 03:03:03;;;;;;;36.25;28.98;;;18.30;99.90;;;;;;6239550;23;20022;-81
2023/09/11 03:05:35;;;;;;;37.28;28.67;;;18.30;99.90;;;;;;6238925;23;20022;-81
2023/09/11 03:08:06;;;;;;;29.15;26.13;;;18.30;99.90;;;;;;6240791;23;20051;-81
2023/09/11 03:10:34;;;;;;;32.65;27.33;;;18.30;99.90;;;;;;6213248;23;20020;-81
2023/09/11 03:13:01;;;;;;;34.85;31.25;;;18.30;99.90;;;;;;6240772;23;20047;-81
2023/09/11 03:15:28;;;;;;;33.90;29.95;;;18.30;99.90;;;;;;6240377;22;20427;-81
2023/09/11 03:17:54;;;;;;;31.05;24.55;;;18.20;99.90;;;;;;6213566;23;20016;-81
2023/09/11 03:20:20;;;;;;;34.90;24.17;;;18.20;99.90;;;;;;6239035;23;20023;-81
2023/09/11 03:22:48;;;;;;;32.55;29.35;;;18.20;99.90;;;;;;6240335;22;20073;-81
2023/09/11 03:25:14;;;;;;;29.17;26.23;;;18.20;99.90;;;;;;6238528;23;20013;-81
2023/09/11 03:27:40;;;;;;;32.38;25.40;;;18.20;99.90;;;;;;6264471;22;20482;-81
2023/09/11 03:30:06;;;;;;;30.83;24.38;;;18.20;99.90;;;;;;6213190;23;20016;-81
2023/09/11 03:32:35;;;;;;;40.10;29.45;;;18.20;99.90;;;;;;6238820;23;20012;-81
2023/09/11 03:35:01;;;;;;;36.70;26.63;;;18.00;99.90;;;;;;6213655;23;20039;-81
2023/09/11 03:37:27;;;;;;;49.08;33.53;;;18.20;99.90;;;;;;6213427;23;20016;-81
2023/09/11 03:39:57;;;;;;;34.42;26.10;;;18.20;99.90;;;;;;6264118;22;20367;-81
2023/09/11 03:42:26;;;;;;;39.87;35.87;;;18.20;99.90;;;;;;6238941;23;20012;-80
2023/09/11 03:44:51;;;;;;;39.92;31.30;;;18.20;99.90;;;;;;6213351;23;20026;-81
2023/09/11 03:47:17;;;;;;;36.55;23.73;;;17.80;99.90;;;;;;6238771;23;20066;-81
2023/09/11 03:49:43;;;;;;;31.70;24.02;;;18.10;99.90;;;;;;6238501;23;20016;-82
2023/09/11 03:52:08;;;;;;;33.75;28.27;;;18.10;99.90;;;;;;6239054;23;20012;-81
2023/09/11 03:54:37;;;;;;;34.20;29.00;;;18.10;99.90;;;;;;6238095;23;20008;-81
2023/09/11 03:57:03;;;;;;;34.08;24.60;;;18.10;99.90;;;;;;6213126;23;20020;-81
2023/09/11 03:59:29;;;;;;;38.00;24.85;;;18.10;99.90;;;;;;6238621;23;20016;-81
2023/09/11 04:01:55;;;;;;;35.33;31.83;;;18.10;99.90;;;;;;6242480;23;20336;-81
2023/09/11 04:04:20;;;;;;;33.95;23.95;;;18.10;99.90;;;;;;6238287;23;20028;-81
2023/09/11 04:06:46;;;;;;;36.78;26.88;;;18.10;99.90;;;;;;6238491;23;20062;-80
2023/09/11 04:09:12;;;;;;;27.70;24.50;;;18.10;99.90;;;;;;6239582;23;20016;-81
2023/09/11 04:11:37;;;;;;;40.08;29.60;;;18.00;99.90;;;;;;6240062;23;20013;-81
2023/09/11 04:14:03;;;;;;;31.05;26.20;;;18.00;99.90;;;;;;6240774;23;20008;-81
2023/09/11 04:16:29;;;;;;;35.80;28.25;;;18.00;99.90;;;;;;6240339;23;20046;-81
2023/09/11 04:18:54;;;;;;;32.33;28.88;;;18.00;99.90;;;;;;6241974;22;20093;-80
2023/09/11 04:21:20;;;;;;;34.80;28.92;;;17.90;99.90;;;;;;6240571;23;20016;-81
2023/09/11 04:23:46;;;;;;;31.15;27.35;;;17.90;99.90;;;;;;6241846;22;20218;-81
2023/09/11 04:26:12;;;;;;;33.30;28.40;;;17.90;99.90;;;;;;6215147;23;20023;-81
2023/09/11 04:28:38;;;;;;;31.50;28.02;;;17.90;99.90;;;;;;6240452;23;20051;-81
2023/09/11 04:31:06;;;;;;;29.23;24.13;;;17.90;99.90;;;;;;6242061;22;20023;-81
2023/09/11 04:33:35;;;;;;;31.65;25.25;;;17.90;99.90;;;;;;6240515;23;20046;-81
2023/09/11 04:36:01;;;;;;;36.58;27.20;;;17.90;99.90;;;;;;6240495;23;20012;-81
2023/09/11 04:38:26;;;;;;;29.05;25.88;;;17.90;99.90;;;;;;6241485;22;20015;-81
2023/09/11 04:41:02;;;;;;;31.70;22.13;;;17.90;99.90;;;;;;6240405;23;20209;-80
2023/09/11 04:43:28;;;;;;;37.42;25.33;;;17.90;99.90;;;;;;6241881;22;20038;-81
2023/09/11 04:45:53;;;;;;;35.88;24.92;;;17.80;99.90;;;;;;6240441;23;20070;-81
2023/09/11 04:48:19;;;;;;;29.58;25.83;;;17.80;99.90;;;;;;6240254;23;20008;-81
2023/09/11 04:50:50;;;;;;;34.22;29.45;;;17.80;99.90;;;;;;6240031;23;20063;-81
2023/09/11 04:53:16;;;;;;;35.75;30.10;;;17.80;99.90;;;;;;6265048;22;20012;-80
2023/09/11 04:55:42;;;;;;;30.13;24.80;;;17.80;99.90;;;;;;6242101;22;20013;-81
2023/09/11 04:58:08;;;;;;;34.10;30.63;;;17.80;99.90;;;;;;6240089;23;20016;-80
2023/09/11 05:00:34;;;;;;;40.85;29.52;;;17.80;99.90;;;;;;6214750;23;20027;-80
2023/09/11 05:03:05;;;;;;;40.70;32.10;;;17.80;99.90;;;;;;6215487;23;20052;-81
2023/09/11 05:05:38;;;;;;;34.60;30.02;;;17.80;99.90;;;;;;6240196;23;20055;-80
2023/09/11 05:08:07;;;;;;;43.60;39.35;;;17.50;99.90;;;;;;6239470;23;20461;-81
2023/09/11 05:10:33;;;;;;;35.15;29.23;;;17.70;99.90;;;;;;6241795;22;20009;-81
2023/09/11 05:13:05;;;;;;;34.53;28.90;;;17.80;99.90;;;;;;6240284;23;20016;-81
2023/09/11 05:15:31;;;;;;;35.55;30.00;;;17.70;99.90;;;;;;6265745;22;20016;-81
2023/09/11 05:17:56;;;;;;;35.83;26.30;;;17.70;99.90;;;;;;6214957;23;20387;-81
2023/09/11 05:20:22;;;;;;;39.83;33.10;;;17.80;99.90;;;;;;6239949;23;20023;-81
2023/09/11 05:22:51;;;;;;;43.25;25.88;;;17.80;99.90;;;;;;6216805;23;20016;-81
2023/09/11 05:25:17;;;;;;;32.47;27.08;;;17.80;99.90;;;;;;6240393;23;20343;-82
2023/09/11 05:27:44;;;;;;;37.42;33.00;;;17.90;99.90;;;;;;6215295;23;20016;-81
2023/09/11 05:30:13;;;;;;;33.35;28.88;;;17.90;99.90;;;;;;6215514;23;20509;-81
2023/09/11 05:32:39;;;;;;;32.03;25.83;;;18.00;99.90;;;;;;6214915;23;20016;-81
2023/09/11 05:35:06;;;;;;;46.65;27.17;;;18.00;99.90;;;;;;6241503;22;20013;-81
2023/09/11 05:37:32;;;;;;;38.65;34.10;;;18.10;99.90;;;;;;6242355;22;20385;-82
2023/09/11 05:40:00;;;;;;;33.60;27.73;;;18.10;99.90;;;;;;6215992;23;20012;-83
2023/09/11 05:42:26;;;;;;;36.75;27.83;;;18.10;99.90;;;;;;6242873;22;20105;-83
2023/09/11 05:44:52;;;;;;;35.85;26.30;;;18.20;99.90;;;;;;6243921;22;20091;-83
2023/09/11 05:47:18;;;;;;;42.90;29.45;;;18.30;99.90;;;;;;6216014;23;20051;-81
2023/09/11 05:49:44;;;;;;;37.65;28.33;;;18.30;99.90;;;;;;6214124;23;20497;-81
2023/09/11 05:52:09;;;;;;;33.45;25.45;;;18.50;99.90;;;;;;6242106;23;20012;-81
2023/09/11 05:54:35;;;;;;;33.17;23.80;;;18.50;99.90;;;;;;6242193;22;20068;-81
2023/09/11 05:57:05;;;;;;;34.53;30.75;;;18.60;99.90;;;;;;6241490;23;20020;-81
2023/09/11 05:59:31;;;;;;;41.35;26.58;;;18.40;99.90;;;;;;6214938;23;20054;-81
2023/09/11 06:01:57;;;;;;;28.60;23.83;;;18.70;99.90;;;;;;6240122;23;20020;-81
2023/09/11 06:04:22;;;;;;;36.35;24.17;;;18.80;99.90;;;;;;6239518;23;20048;-82
2023/09/11 06:06:48;;;;;;;34.75;24.05;;;18.90;99.90;;;;;;6266539;22;20004;-84
2023/09/11 06:09:14;;;;;;;32.00;23.45;;;19.00;99.90;;;;;;6241857;23;20497;-80
2023/09/11 06:11:39;;;;;;;35.08;24.10;;;19.10;99.90;;;;;;6239627;23;20012;-81
2023/09/11 06:14:09;;;;;;;28.92;23.30;;;19.30;99.90;;;;;;6239294;23;20051;-81
2023/09/11 06:16:36;;;;;;;39.40;24.85;;;19.40;99.90;;;;;;6241536;22;20023;-80
2023/09/11 06:19:03;;;;;;;38.13;23.85;;;19.50;99.90;;;;;;6240132;22;20083;-80
2023/09/11 06:21:29;;;;;;;35.55;23.38;;;19.70;99.90;;;;;;6239863;23;20047;-82
2023/09/11 06:23:55;;;;;;;36.50;22.63;;;20.10;99.90;;;;;;6241370;22;20008;-84
2023/09/11 06:26:20;;;;;;;29.25;19.67;;;20.80;99.90;;;;;;6240156;23;20023;-82
2023/09/11 06:28:46;;;;;;;34.95;20.15;;;21.50;99.90;;;;;;6241519;23;20031;-82
2023/09/11 06:31:12;;;;;;;32.45;20.10;;;21.70;99.90;;;;;;6214205;23;20022;-84
2023/09/11 06:33:40;;;;;;;32.63;20.60;;;21.80;99.90;;;;;;6240748;22;20015;-82
2023/09/11 06:36:06;;;;;;;34.92;21.45;;;21.90;99.90;;;;;;6239990;23;20304;-82
2023/09/11 06:38:32;;;;;;;29.08;21.20;;;21.80;99.90;;;;;;6239634;23;20016;-82
2023/09/11 06:40:58;;;;;;;29.95;22.00;;;21.70;99.90;;;;;;6239706;23;20023;-82
2023/09/11 06:43:24;;;;;;;39.53;21.55;;;21.80;99.90;;;;;;6241226;22;20012;-81
2023/09/11 06:45:53;;;;;;;35.63;22.50;;;21.80;99.90;;;;;;6239790;23;20082;-82
2023/09/11 06:48:19;;;;;;;38.67;22.23;;;21.80;99.90;;;;;;6264530;22;20051;-81
2023/09/11 06:50:45;;;;;;;27.98;20.10;;;21.90;99.90;;;;;;6214650;23;20020;-81
2023/09/11 06:53:11;;;;;;;24.75;18.17;;;22.00;99.90;;;;;;6239625;23;20474;-81
2023/09/11 06:55:44;;;;;;;29.92;20.70;;;22.10;99.90;;;;;;6238199;22;20092;-81
2023/09/11 06:58:09;;;;;;;;;;;22.20;99.90;;;;;;6214986;23;20026;-81
2023/09/11 07:00:36;;;;;;;27.23;23.42;;;22.30;99.90;;;;;;6264464;22;19991;-82
2023/09/11 07:03:04;;;;;;;37.88;22.55;;;22.30;99.90;;;;;;6239369;23;20082;-81
2023/09/11 07:05:30;;;;;;;28.38;21.65;;;22.40;99.90;;;;;;6238622;23;20020;-81
2023/09/11 07:07:56;;;;;;;35.42;24.23;;;22.40;99.90;;;;;;6241361;22;20066;-81
2023/09/11 07:10:23;;;;;;;27.75;24.77;;;22.40;99.90;;;;;;6241095;22;20009;-82
2023/09/11 07:12:49;;;;;;;28.90;19.05;;;22.40;99.90;;;;;;6213860;23;20067;-81
2023/09/11 07:15:16;;;;;;;31.77;23.45;;;22.40;99.90;;;;;;6214010;23;20008;-82
2023/09/11 07:17:43;;;;;;;36.50;23.63;;;22.50;99.90;;;;;;6238763;23;20047;-82
2023/09/11 07:20:10;;;;;;;27.25;22.48;;;22.60;99.90;;;;;;6240791;22;20042;-82
2023/09/11 07:22:35;;;;;;;33.70;22.35;;;22.70;99.90;;;;;;6239427;23;20047;-82
2023/09/11 07:25:02;;;;;;;29.77;23.63;;;22.70;99.90;;;;;;6238235;23;20027;-81
2023/09/11 07:27:33;;;;;;;31.20;23.48;;;22.80;99.90;;;;;;6213796;23;20077;-81
2023/09/11 07:30:05;;;;;;;27.38;23.73;;;22.90;99.90;;;;;;6241130;22;20363;-81
2023/09/11 07:32:31;;;;;;;31.20;23.60;;;23.00;99.90;;;;;;6240379;22;20086;-80
2023/09/11 07:34:57;;;;;;;31.60;24.55;;;23.10;99.90;;;;;;6240715;23;20016;-80
2023/09/11 07:37:24;;;;;;;30.80;21.58;;;23.10;99.90;;;;;;6240394;22;20044;-81
2023/09/11 07:39:50;;;;;;;28.05;20.55;;;23.20;99.90;;;;;;6213837;23;20343;-81
2023/09/11 07:42:16;;;;;;;28.13;19.00;;;23.30;99.90;;;;;;6264402;22;20020;-81
2023/09/11 07:44:43;;;;;;;31.73;24.05;;;23.30;99.90;;;;;;6213654;23;20090;-81
2023/09/11 07:47:09;;;;;;;29.50;21.38;;;23.40;99.90;;;;;;6241910;22;20091;-81
2023/09/11 07:49:35;;;;;;;26.48;19.65;;;23.40;99.90;;;;;;6242647;22;20223;-81
2023/09/11 07:52:01;;;;;;;26.55;22.52;;;23.50;99.90;;;;;;6243067;22;20536;-81
2023/09/11 07:54:27;;;;;;;29.27;20.33;;;23.50;99.90;;;;;;6240840;23;20083;-80
2023/09/11 07:56:53;;;;;;;22.23;19.17;;;23.60;99.90;;;;;;6246242;23;20008;-83
2023/09/11 07:59:19;;;;;;;28.63;22.92;;;23.60;99.90;;;;;;6246373;22;20061;-83
2023/09/11 08:01:47;;;;;;;28.73;19.20;;;23.60;99.90;;;;;;6241010;23;20016;-82
2023/09/11 08:04:13;;;;;;;28.85;19.38;;;23.70;99.90;;;;;;6243536;22;20012;-83
2023/09/11 08:06:39;;;;;;;27.20;18.10;;;23.80;99.90;;;;;;6219233;23;20107;-83
2023/09/11 08:09:04;;;;;;;25.85;20.73;;;23.90;99.90;;;;;;6246864;23;20014;-83
2023/09/11 08:11:39;;;;;;;28.05;19.40;;;23.90;99.90;;;;;;6219551;23;20020;-84
2023/09/11 08:14:10;;;;;;;27.67;20.05;;;24.00;99.90;;;;;;6219573;23;20011;-83
2023/09/11 08:16:36;;;;;;;25.38;16.17;;;24.10;99.90;;;;;;6243352;23;20008;-83
2023/09/11 08:19:05;;;;;;;28.00;17.83;;;24.20;99.90;;;;;;6243482;23;20512;-83
2023/09/11 08:21:31;;;;;;;22.08;15.70;;;24.30;99.90;;;;;;6268740;22;20047;-83
2023/09/11 08:23:56;;;;;;;21.80;15.95;;;24.30;99.90;;;;;;6242998;23;20540;-83
2023/09/11 08:26:23;;;;;;;24.88;16.63;;;24.40;99.90;;;;;;6269138;22;20343;-83
2023/09/11 08:28:55;;;;;;;25.13;19.23;;;24.50;99.90;;;;;;6268520;22;20015;-83
2023/09/11 08:31:21;;;;;;;22.15;14.75;;;24.50;99.90;;;;;;6245151;23;20020;-83
2023/09/11 08:33:50;;;;;;;28.45;16.77;;;24.60;99.90;;;;;;6218020;23;20012;-84
2023/09/11 08:36:16;;;;;;;25.65;15.88;;;24.70;99.90;;;;;;6244263;23;20022;-83
2023/09/11 08:38:44;;;;;;;25.45;16.20;;;24.80;99.90;;;;;;6242685;23;20008;-83
2023/09/11 08:41:12;;;;;;;27.23;18.45;;;24.90;99.90;;;;;;6217105;23;20348;-83
2023/09/11 08:43:41;;;;;;;20.05;15.13;;;25.00;99.90;;;;;;6241952;23;20447;-83
2023/09/11 08:46:09;;;;;;;24.95;16.83;;;25.10;99.90;;;;;;6244884;22;20371;-83
2023/09/11 08:48:42;;;;;;;26.40;16.77;;;25.20;99.90;;;;;;6241860;23;20044;-83
2023/09/11 08:51:12;;;;;;;22.80;15.15;;;25.30;99.90;;;;;;6242377;23;20012;-83
2023/09/11 08:53:41;;;;;;;22.52;16.50;;;25.40;99.90;;;;;;6243263;23;20016;-83
2023/09/11 08:56:08;;;;;;;21.02;15.45;;;25.50;99.90;;;;;;6267708;22;20023;-83
2023/09/11 08:58:36;;;;;;;23.95;14.25;;;25.60;99.90;;;;;;6243964;22;20008;-82
2023/09/11 09:01:03;;;;;;;22.83;15.20;;;25.70;99.90;;;;;;6242785;23;20524;-83
2023/09/11 09:03:29;;;;;;;25.08;15.57;;;25.80;99.90;;;;;;6268570;22;20023;-83
2023/09/11 09:05:57;;;;;;;20.92;15.07;;;25.80;99.90;;;;;;6243384;23;20043;-83
2023/09/11 09:08:24;;;;;;;23.90;15.38;;;25.90;99.90;;;;;;6218564;23;20458;-84
2023/09/11 09:10:52;;;;;;;18.40;13.43;;;26.00;99.90;;;;;;6243972;23;20005;-82
2023/09/11 09:13:17;;;;;;;20.92;13.85;;;26.40;99.90;;;;;;6267324;22;20109;-83
2023/09/11 09:15:44;;;;;;;24.30;14.13;;;27.20;99.90;;;;;;6221246;23;20008;-84
2023/09/11 09:18:11;;;;;;;22.50;13.52;;;28.10;99.90;;;;;;6224407;23;20021;-85
2023/09/11 09:20:38;;;;;;;22.92;16.05;;;28.90;99.90;;;;;;6249656;23;20016;-84
2023/09/11 09:23:04;;;;;;;26.65;15.13;;;29.40;99.90;;;;;;6245037;23;20023;-83
2023/09/11 09:25:30;;;;;;;24.17;11.57;;;29.50;99.90;;;;;;6227861;23;20016;-84
2023/09/11 09:27:58;;;;;;;25.20;15.95;;;29.20;99.90;;;;;;6248772;23;20024;-85
2023/09/11 09:30:30;;;;;;;21.80;11.02;;;28.70;99.90;;;;;;6226122;23;20042;-84
2023/09/11 09:32:56;;;;;;;15.98;10.18;;;28.30;99.90;;;;;;6225531;23;20016;-85
2023/09/11 09:35:25;;;;;;;30.63;11.60;;;28.00;99.90;;;;;;6279012;22;20016;-86
2023/09/11 09:37:57;;;;;;;21.02;10.77;;;27.80;99.90;;;;;;6229417;23;20012;-86
2023/09/11 09:40:29;;;;;;;;;;;27.70;99.90;;;;;;6254983;23;20016;-87
2023/09/11 09:42:58;;;;;;;19.45;10.10;;;27.60;99.90;;;;;;6253931;23;19951;-86
2023/09/11 09:45:37;;;;;;;17.80;11.98;;;27.60;99.90;;;;;;6227011;23;20020;-85
2023/09/11 09:48:22;;;;;;;16.65;10.30;;;27.60;99.90;;;;;;6245173;23;20012;-84
2023/09/11 09:50:50;;;;;;;17.63;11.32;;;27.60;99.90;;;;;;6251081;23;20054;-85
2023/09/11 09:53:41;;;;;;;15.63;10.82;;;27.60;99.90;;;;;;6251287;23;20012;-86
2023/09/11 09:56:08;;;;;;;20.67;10.40;;;27.60;99.90;;;;;;6230318;23;20520;-85
2023/09/11 09:58:38;;;;;;;18.90;11.00;;;27.80;99.90;;;;;;6255886;22;20012;-85
2023/09/11 10:01:06;;;;;;;18.45;11.52;;;27.70;99.90;;;;;;6227823;23;20031;-85
2023/09/11 10:03:46;;;;;;;16.60;9.95;;;27.80;99.90;;;;;;6251075;22;20012;-84
2023/09/11 10:06:16;;;;;;;19.40;11.80;;;27.80;99.90;;;;;;6248364;22;20020;-85
2023/09/11 10:08:42;;;;;;;22.98;11.10;;;27.80;99.90;;;;;;6245782;23;20012;-84
2023/09/11 10:11:08;;;;;;;18.23;10.23;;;28.00;99.90;;;;;;6243979;23;20023;-84
2023/09/11 10:13:38;;;;;;;17.83;9.85;;;27.90;99.90;;;;;;6270693;22;20348;-85
2023/09/11 10:16:08;;;;;;;19.25;10.02;;;28.00;99.90;;;;;;6241024;23;20011;-83
2023/09/11 10:18:36;;;;;;;19.58;9.43;;;28.00;99.90;;;;;;6244723;23;20015;-84
2023/09/11 10:21:06;;;;;;;15.15;10.30;;;28.10;99.90;;;;;;6217570;23;20016;-84
2023/09/11 10:23:34;;;;;;;14.73;10.02;;;28.10;99.90;;;;;;6219421;23;20024;-84
2023/09/11 10:26:05;;;;;;;13.18;10.05;;;28.10;99.90;;;;;;6244009;23;20074;-85
2023/09/11 10:28:44;;;;;;;14.75;11.48;;;28.20;99.90;;;;;;6221046;23;20012;-85
2023/09/11 10:31:30;;;;;;;15.75;10.88;;;28.30;99.90;;;;;;6246525;23;20015;-84
2023/09/11 10:34:00;;;;;;;17.33;11.40;;;28.30;99.90;;;;;;6246472;23;20454;-85
2023/09/11 10:36:43;;;;;;;14.68;9.98;;;28.30;99.90;;;;;;6247023;23;20016;-85
2023/09/11 10:39:10;;;;;;;20.50;11.50;;;28.40;99.90;;;;;;6221321;23;20018;-85
2023/09/11 10:41:40;;;;;;;18.75;10.57;;;28.40;99.90;;;;;;6246873;23;20439;-85
2023/09/11 10:44:06;;;;;;;17.02;10.93;;;28.40;99.90;;;;;;6246432;23;20012;-85
2023/09/11 10:46:39;;;;;;;13.30;10.75;;;28.50;99.90;;;;;;6248608;22;20070;-85
2023/09/11 10:49:17;;;;;;;17.10;10.90;;;28.70;99.90;;;;;;6219954;23;20087;-84
2023/09/11 10:51:44;;;;;;;22.27;11.27;;;28.70;99.90;;;;;;6220586;23;20012;-84
2023/09/11 10:54:15;;;;;;;16.50;11.15;;;28.80;99.90;;;;;;6220496;23;20016;-85
2023/09/11 10:56:42;;;;;;;18.30;10.82;;;28.90;99.90;;;;;;6247345;23;20103;-85
2023/09/11 10:59:08;;;;;;;16.73;10.82;;;28.90;99.90;;;;;;6246519;23;20050;-84
2023/09/11 11:01:37;;;;;;;15.65;13.32;;;29.00;99.90;;;;;;6246342;23;20008;-84
2023/09/11 11:04:07;;;;;;;20.02;13.88;;;29.00;99.90;;;;;;6247257;23;20478;-84
2023/09/11 11:06:33;;;;;;;22.08;15.07;;;29.10;99.90;;;;;;6221811;23;20020;-85
2023/09/11 11:09:01;;;;;;;18.58;15.48;;;29.20;99.90;;;;;;6273009;22;20020;-85
2023/09/11 11:11:33;;;;;;;14.48;12.23;;;29.20;99.90;;;;;;6221436;23;20017;-84
2023/09/11 11:14:21;;;;;;;25.48;19.02;;;29.30;99.90;;;;;;6221344;23;20079;-85
2023/09/11 11:17:11;;;;;;;16.58;13.55;;;29.40;99.90;;;;;;6247174;23;20039;-84
2023/09/11 11:19:59;;;;;;;19.00;15.40;;;29.40;99.90;;;;;;6246269;23;20039;-84
2023/09/11 11:22:31;;;;;;;17.88;15.98;;;29.40;99.90;;;;;;6222922;23;20313;-84
2023/09/11 11:24:58;;;;;;;17.70;14.85;;;29.50;99.90;;;;;;6247138;23;20023;-85
2023/09/11 11:27:24;;;;;;;22.77;15.80;;;29.50;99.90;;;;;;6250391;22;20008;-84
2023/09/11 11:29:52;;;;;;;21.77;17.00;;;29.60;99.90;;;;;;6249965;22;20054;-85
2023/09/11 11:32:21;;;;;;;17.92;13.70;;;29.70;99.90;;;;;;6248223;23;20016;-85
2023/09/11 11:34:48;;;;;;;21.70;14.43;;;29.90;99.90;;;;;;6248383;23;20031;-85
2023/09/11 11:37:16;;;;;;;20.95;14.98;;;29.80;99.90;;;;;;6248779;23;20014;-85
2023/09/11 11:39:43;;;;;;;18.48;15.82;;;29.80;99.90;;;;;;6247045;23;20024;-85
2023/09/11 11:42:09;;;;;;;17.27;10.05;;;29.90;99.90;;;;;;6273431;22;20458;-84
2023/09/11 11:44:36;;;;;;;20.33;13.73;;;29.90;99.90;;;;;;6222760;23;20351;-84
2023/09/11 11:47:07;;;;;;;16.55;12.80;;;29.80;99.90;;;;;;6222443;23;20457;-85
2023/09/11 11:49:35;;;;;;;17.98;12.75;;;29.90;99.90;;;;;;6248058;23;20011;-85
2023/09/11 11:52:04;;;;;;;17.75;13.55;;;29.80;99.90;;;;;;6272031;22;20068;-85
2023/09/11 11:54:32;;;;;;;18.17;13.13;;;29.80;99.90;;;;;;6247141;23;20037;-84
2023/09/11 11:57:05;;;;;;;15.20;11.90;;;30.00;99.90;;;;;;6249992;22;20058;-85
2023/09/11 11:59:41;;;;;;;23.50;18.30;;;30.10;99.90;;;;;;6247125;23;20371;-85
2023/09/11 12:02:20;;;;;;;16.75;11.85;;;30.00;99.90;;;;;;6222679;23;20016;-85
2023/09/11 12:04:46;;;;;;;18.73;16.92;;;30.00;99.90;;;;;;6247589;23;20012;-85
2023/09/11 12:07:12;;;;;;;18.27;16.33;;;30.00;99.90;;;;;;6222731;23;20024;-83
2023/09/11 12:09:41;;;;;;;12.60;11.23;;;30.10;99.90;;;;;;6221607;23;20051;-85
2023/09/11 12:12:08;;;;;;;18.30;13.45;;;30.00;99.90;;;;;;6244299;23;20085;-83
2023/09/11 12:14:36;;;;;;;18.05;13.30;;;30.10;99.90;;;;;;6267677;22;20432;-84
2023/09/11 12:17:09;;;;;;;22.27;18.27;;;30.10;99.90;;;;;;6242298;23;20044;-84
2023/09/11 12:19:35;;;;;;;32.15;29.70;;;29.90;99.90;;;;;;6244417;22;20016;-83
2023/09/11 12:22:01;;;;;;;29.33;26.83;;;29.90;99.90;;;;;;6268301;22;20030;-83
2023/09/11 12:24:26;;;;;;;27.35;25.15;;;30.10;99.90;;;;;;6242450;23;20447;-83
2023/09/11 12:26:52;;;;;;;17.75;16.17;;;30.10;99.90;;;;;;6217256;23;20026;-83
2023/09/11 12:29:19;;;;;;;22.25;20.33;;;30.10;99.90;;;;;;6244176;22;20012;-84
2023/09/11 12:31:44;;;;;;;19.25;13.90;;;30.20;99.90;;;;;;6242022;23;20247;-84
2023/09/11 12:34:10;;;;;;;26.42;24.13;;;30.10;99.90;;;;;;6269228;22;20011;-84